Time;durP1;ratioP1;P1;durP2;ratioP2;P2;SDS_P1;SDS_P2;PMS_P1;PMS_P2;Temp;Humidity;BMP_temperature;BMP_pressure;BME280_temperature;BME280_humidity;BME280_pressure;Samples;Min_cycle;Max_cycle;Signal;HPM_P1;HPM_P2
2024/01/22 00:02:02;;;;;;;21.83;10.50;;;;;;;;;;6116147;23;20834;-63
2024/01/22 00:04:56;;;;;;;24.27;12.38;;;;;;;;;;6116573;23;20249;-64
2024/01/22 00:07:44;;;;;;;30.55;14.05;;;;;;;;;;6117129;23;20059;-64
2024/01/22 00:10:37;;;;;;;27.95;13.48;;;;;;;;;;6116708;23;20029;-64
2024/01/22 00:13:31;;;;;;;26.55;13.48;;;;;;;;;;6117389;23;20029;-64
2024/01/22 00:16:19;;;;;;;26.35;12.85;;;;;;;;;;6117532;23;20499;-64
2024/01/22 00:18:53;;;;;;;30.58;13.85;;;;;;;;;;6112832;23;20061;-63
2024/01/22 00:21:26;;;;;;;35.45;16.00;;;;;;;;;;6116710;23;20511;-59
2024/01/22 00:24:07;;;;;;;30.40;15.10;;;;;;;;;;6115807;23;20385;-59
2024/01/22 00:26:34;;;;;;;31.02;13.52;;;;;;;;;;6115634;23;20026;-57
2024/01/22 00:29:09;;;;;;;30.15;15.48;;;;;;;;;;6115318;23;20484;-58
2024/01/22 00:31:36;;;;;;;39.97;16.15;;;;;;;;;;6114999;23;20049;-63
2024/01/22 00:34:03;;;;;;;34.65;16.10;;;;;;;;;;6117323;23;20025;-63
2024/01/22 00:36:38;;;;;;;41.47;16.30;;;;;;;;;;6115797;23;20025;-67
2024/01/22 00:39:06;;;;;;;40.20;16.73;;;;;;;;;;6114663;23;20100;-66
2024/01/22 00:41:33;;;;;;;;;;;;;;;;;;6117144;23;20021;-66
2024/01/22 00:44:06;;;;;;;34.95;16.13;;;;;;;;;;6116545;23;20087;-65
2024/01/22 00:46:34;;;;;;;33.67;16.05;;;;;;;;;;6117087;23;20436;-66
2024/01/22 00:49:11;;;;;;;40.88;16.42;;;;;;;;;;6111338;23;20029;-60
2024/01/22 00:51:38;;;;;;;35.50;15.07;;;;;;;;;;6117383;23;20495;-57
2024/01/22 00:54:05;;;;;;;32.05;15.65;;;;;;;;;;6115194;23;20018;-58
2024/01/22 00:56:40;;;;;;;39.20;16.65;;;;;;;;;;6117168;23;20367;-57
2024/01/22 00:59:07;;;;;;;;;;;;;;;;;;6117012;23;20400;-57
2024/01/22 01:01:40;;;;;;;35.38;15.13;;;;;;;;;;6115506;23;19928;-53
2024/01/22 01:04:08;;;;;;;27.50;15.77;;;;;;;;;;6116845;23;20033;-61
2024/01/22 01:06:35;;;;;;;31.48;16.33;;;;;;;;;;6117362;23;20127;-61
2024/01/22 01:09:08;;;;;;;25.73;13.35;;;;;;;;;;6115792;23;20029;-61
2024/01/22 01:11:36;;;;;;;27.63;14.88;;;;;;;;;;6117718;23;20084;-61
2024/01/22 01:14:09;;;;;;;34.00;14.43;;;;;;;;;;6114322;23;20032;-61
2024/01/22 01:16:37;;;;;;;37.15;15.43;;;;;;;;;;6116019;23;20026;-62
2024/01/22 01:19:04;;;;;;;32.08;16.27;;;;;;;;;;6116896;23;20388;-58
2024/01/22 01:21:47;;;;;;;27.45;15.32;;;;;;;;;;6115354;23;20028;-57
2024/01/22 01:24:14;;;;;;;31.70;16.52;;;;;;;;;;6116240;23;20026;-55
2024/01/22 01:26:49;;;;;;;31.38;16.63;;;;;;;;;;6117114;23;20026;-55
2024/01/22 01:29:16;;;;;;;28.13;13.57;;;;;;;;;;6116528;23;20022;-61
2024/01/22 01:31:43;;;;;;;29.48;16.02;;;;;;;;;;6114888;23;20032;-66
2024/01/22 01:34:17;;;;;;;31.40;16.23;;;;;;;;;;6115875;23;20389;-66
2024/01/22 01:36:45;;;;;;;;;;;;;;;;;;6116815;23;20105;-66
2024/01/22 01:39:18;;;;;;;24.83;12.32;;;;;;;;;;6115990;23;19920;-66
2024/01/22 01:41:53;;;;;;;30.98;15.45;;;;;;;;;;6116634;23;20072;-66
2024/01/22 01:44:20;;;;;;;23.52;12.80;;;;;;;;;;6116315;23;20049;-66
2024/01/22 01:46:48;;;;;;;29.58;14.38;;;;;;;;;;6115430;23;20325;-58
2024/01/22 01:49:22;;;;;;;27.20;13.13;;;;;;;;;;6117530;23;20044;-57
2024/01/22 01:51:49;;;;;;;;;;;;;;;;;;6108387;23;20034;-58
2024/01/22 01:54:23;;;;;;;25.65;13.52;;;;;;;;;;6116379;23;20398;-59
2024/01/22 01:56:51;;;;;;;26.98;12.90;;;;;;;;;;6115399;23;20029;-58
2024/01/22 01:59:19;;;;;;;22.27;11.75;;;;;;;;;;6116107;23;20077;-48
2024/01/22 02:01:53;;;;;;;25.80;12.48;;;;;;;;;;6116020;23;20025;-61
2024/01/22 02:04:21;;;;;;;26.60;13.35;;;;;;;;;;6115137;23;20065;-62
2024/01/22 02:06:48;;;;;;;22.63;13.10;;;;;;;;;;6114346;23;20029;-62
2024/01/22 02:09:21;;;;;;;25.42;12.32;;;;;;;;;;6116312;23;20104;-61
2024/01/22 02:11:55;;;;;;;26.10;12.82;;;;;;;;;;6115582;23;20630;-62
2024/01/22 02:14:23;;;;;;;18.10;10.75;;;;;;;;;;6115749;23;20088;-62
2024/01/22 02:16:50;;;;;;;18.45;9.60;;;;;;;;;;6117301;23;20018;-58
2024/01/22 02:19:23;;;;;;;22.98;10.95;;;;;;;;;;6115955;23;20026;-58
2024/01/22 02:21:57;;;;;;;21.95;11.55;;;;;;;;;;6113599;23;20209;-58
2024/01/22 02:24:31;;;;;;;23.90;11.38;;;;;;;;;;6116685;23;20825;-58
2024/01/22 02:26:59;;;;;;;19.73;10.70;;;;;;;;;;6115164;23;20397;-57
2024/01/22 02:29:26;;;;;;;;;;;;;;;;;;6117136;23;20018;-62
2024/01/22 02:32:01;;;;;;;20.30;9.00;;;;;;;;;;6115075;23;19921;-64
2024/01/22 02:34:28;;;;;;;18.08;8.57;;;;;;;;;;6115796;23;20022;-62
2024/01/22 02:36:55;;;;;;;;;;;;;;;;;;6115516;23;20021;-62
2024/01/22 02:39:30;;;;;;;13.98;8.68;;;;;;;;;;6115326;23;19920;-62
2024/01/22 02:41:57;;;;;;;12.18;7.65;;;;;;;;;;6115380;23;20041;-62
2024/01/22 02:44:32;;;;;;;16.67;7.75;;;;;;;;;;6114484;23;20523;-66
2024/01/22 02:46:59;;;;;;;13.60;8.20;;;;;;;;;;6116349;23;20022;-66
2024/01/22 02:49:27;;;;;;;13.10;7.70;;;;;;;;;;6115618;23;20100;-66
2024/01/22 02:52:02;;;;;;;10.82;6.60;;;;;;;;;;6114810;23;20404;-66
2024/01/22 02:54:29;;;;;;;16.88;7.28;;;;;;;;;;6115503;23;20049;-54
2024/01/22 02:57:03;;;;;;;10.20;6.80;;;;;;;;;;6115050;23;20030;-61
2024/01/22 02:59:31;;;;;;;10.48;6.22;;;;;;;;;;6115166;23;20018;-62
2024/01/22 03:01:58;;;;;;;10.95;5.95;;;;;;;;;;6116146;23;20030;-62
2024/01/22 03:04:31;;;;;;;9.90;5.30;;;;;;;;;;6118019;23;20022;-62
2024/01/22 03:06:59;;;;;;;7.32;4.55;;;;;;;;;;6118754;23;20030;-62
2024/01/22 03:09:34;;;;;;;6.97;4.60;;;;;;;;;;6116967;23;20025;-62
2024/01/22 03:12:01;;;;;;;7.68;4.50;;;;;;;;;;6119200;23;20029;-63
2024/01/22 03:14:28;;;;;;;6.78;4.18;;;;;;;;;;6116223;23;20444;-63
2024/01/22 03:17:03;;;;;;;7.60;3.95;;;;;;;;;;6117795;23;20033;-64
2024/01/22 03:19:30;;;;;;;7.47;4.25;;;;;;;;;;6117726;23;20526;-63
2024/01/22 03:22:10;;;;;;;6.97;3.90;;;;;;;;;;6115757;23;20128;-64
2024/01/22 03:24:37;;;;;;;7.15;4.03;;;;;;;;;;6116701;23;20113;-59
2024/01/22 03:27:11;;;;;;;6.63;3.90;;;;;;;;;;6116782;23;20407;-64
2024/01/22 03:29:46;;;;;;;6.28;3.80;;;;;;;;;;6115812;23;20034;-63
2024/01/22 03:32:20;;;;;;;8.43;4.10;;;;;;;;;;6116780;23;20022;-63
2024/01/22 03:34:47;;;;;;;5.68;3.50;;;;;;;;;;6117162;23;20030;-64
2024/01/22 03:37:14;;;;;;;5.72;3.55;;;;;;;;;;6106854;23;20026;-64
2024/01/22 03:39:48;;;;;;;6.75;3.35;;;;;;;;;;6118448;23;20081;-63
2024/01/22 03:42:16;;;;;;;6.05;2.80;;;;;;;;;;6116565;23;20030;-58
2024/01/22 03:44:49;;;;;;;4.47;2.92;;;;;;;;;;6119036;23;20022;-58
2024/01/22 03:47:17;;;;;;;5.75;3.13;;;;;;;;;;6116637;23;20030;-57
2024/01/22 03:49:51;;;;;;;4.72;2.72;;;;;;;;;;6117972;23;20030;-58
2024/01/22 03:52:18;;;;;;;3.78;2.80;;;;;;;;;;6111900;23;20021;-55
2024/01/22 03:54:46;;;;;;;7.43;3.08;;;;;;;;;;6116877;23;20100;-62
2024/01/22 03:57:20;;;;;;;6.60;2.88;;;;;;;;;;6117047;23;20026;-62
2024/01/22 03:59:48;;;;;;;6.20;3.00;;;;;;;;;;6116489;23;20330;-62
2024/01/22 04:02:15;;;;;;;3.90;2.30;;;;;;;;;;6116712;23;20030;-62
2024/01/22 04:04:50;;;;;;;4.30;2.60;;;;;;;;;;6115310;23;20408;-63
2024/01/22 04:07:17;;;;;;;3.42;2.63;;;;;;;;;;6116438;23;20026;-63
2024/01/22 04:09:52;;;;;;;4.47;2.55;;;;;;;;;;6116878;23;20077;-63
2024/01/22 04:12:19;;;;;;;4.45;2.72;;;;;;;;;;6117123;23;20204;-63
2024/01/22 04:14:47;;;;;;;3.38;2.30;;;;;;;;;;6118543;23;20029;-63
2024/01/22 04:17:22;;;;;;;3.92;2.80;;;;;;;;;;6118083;23;20026;-63
2024/01/22 04:19:49;;;;;;;5.32;2.60;;;;;;;;;;6117212;23;20026;-64
2024/01/22 04:22:29;;;;;;;4.60;2.38;;;;;;;;;;6112682;23;20030;-59
2024/01/22 04:24:56;;;;;;;5.38;2.20;;;;;;;;;;6118314;23;20084;-59
2024/01/22 04:27:31;;;;;;;2.95;2.28;;;;;;;;;;6115661;23;20494;-59
2024/01/22 04:29:58;;;;;;;6.97;2.30;;;;;;;;;;6118431;23;20189;-59
2024/01/22 04:32:26;;;;;;;3.97;2.40;;;;;;;;;;6117421;23;20093;-60
2024/01/22 04:35:00;;;;;;;4.65;2.65;;;;;;;;;;6118067;23;20100;-59
2024/01/22 04:37:28;;;;;;;3.08;2.28;;;;;;;;;;6116241;23;20028;-59
2024/01/22 04:40:10;;;;;;;5.65;2.35;;;;;;;;;;6117110;23;20025;-56
2024/01/22 04:42:37;;;;;;;4.93;2.50;;;;;;;;;;6115827;23;20081;-56
2024/01/22 04:45:11;;;;;;;4.53;2.35;;;;;;;;;;6118081;23;20092;-56
2024/01/22 04:47:38;;;;;;;3.67;2.60;;;;;;;;;;6117622;23;20022;-56
2024/01/22 04:50:06;;;;;;;2.95;1.92;;;;;;;;;;6117588;23;20088;-62
2024/01/22 04:52:39;;;;;;;3.28;2.13;;;;;;;;;;6117502;23;20095;-57
2024/01/22 04:55:07;;;;;;;3.30;2.33;;;;;;;;;;6117977;23;20476;-54
2024/01/22 04:57:48;;;;;;;2.60;1.70;;;;;;;;;;6113581;23;20026;-56
2024/01/22 05:00:16;;;;;;;2.97;2.10;;;;;;;;;;6115476;23;20054;-56
2024/01/22 05:02:51;;;;;;;4.03;2.00;;;;;;;;;;6114964;23;20495;-55
2024/01/22 05:05:21;;;;;;;5.93;2.10;;;;;;;;;;6118221;23;20025;-55
2024/01/22 05:07:48;;;;;;;5.05;1.92;;;;;;;;;;6117786;23;20080;-60
2024/01/22 05:10:22;;;;;;;6.28;1.80;;;;;;;;;;6118393;23;20030;-60
2024/01/22 05:12:50;;;;;;;4.10;2.25;;;;;;;;;;6116497;23;20038;-59
2024/01/22 05:15:23;;;;;;;7.70;2.55;;;;;;;;;;6116839;23;20124;-60
2024/01/22 05:17:51;;;;;;;3.05;2.20;;;;;;;;;;6116684;23;20024;-62
2024/01/22 05:20:18;;;;;;;;;;;;;;;;;;6114642;23;20385;-64
2024/01/22 05:22:59;;;;;;;4.05;1.70;;;;;;;;;;6115120;23;19917;-63
2024/01/22 05:25:26;;;;;;;3.28;1.88;;;;;;;;;;6116593;23;20025;-63
2024/01/22 05:28:01;;;;;;;6.72;2.10;;;;;;;;;;6113752;23;20033;-63
2024/01/22 05:30:28;;;;;;;5.05;2.30;;;;;;;;;;6115688;23;20025;-63
2024/01/22 05:32:55;;;;;;;3.72;2.08;;;;;;;;;;6112824;23;20032;-63
2024/01/22 05:35:49;;;;;;;9.90;3.30;;;;;;;;;;6114961;23;20036;-69
2024/01/22 05:38:43;;;;;;;4.85;2.78;;;;;;;;;;6113534;23;20029;-67
2024/01/22 05:41:36;;;;;;;8.50;3.47;;;;;;;;;;6114271;23;20022;-67
2024/01/22 05:44:25;;;;;;;7.03;2.53;;;;;;;;;;6115599;23;20026;-68
2024/01/22 05:47:18;;;;;;;6.32;3.00;;;;;;;;;;6115178;23;20125;-67
2024/01/22 05:50:11;;;;;;;9.45;3.85;;;;;;;;;;6114270;23;20092;-59
2024/01/22 05:52:59;;;;;;;11.93;4.93;;;;;;;;;;6112864;23;20025;-60
2024/01/22 05:55:53;;;;;;;16.70;4.85;;;;;;;;;;6113121;23;20057;-59
2024/01/22 05:58:40;;;;;;;14.55;5.70;;;;;;;;;;6096830;23;20031;-59
2024/01/22 06:01:33;;;;;;;15.30;5.45;;;;;;;;;;6097968;23;20022;-59
2024/01/22 06:04:22;;;;;;;13.82;5.97;;;;;;;;;;6114884;23;20022;-59
2024/01/22 06:07:14;;;;;;;11.48;6.82;;;;;;;;;;6116845;23;20089;-62
2024/01/22 06:10:02;;;;;;;16.52;6.45;;;;;;;;;;6117067;23;20093;-62
2024/01/22 06:12:55;;;;;;;18.83;6.28;;;;;;;;;;6115796;23;20084;-62
2024/01/22 06:15:49;;;;;;;17.63;5.93;;;;;;;;;;6113415;23;20437;-63
2024/01/22 06:18:45;;;;;;;17.52;6.20;;;;;;;;;;6115028;23;20088;-63
2024/01/22 06:21:37;;;;;;;20.73;6.35;;;;;;;;;;6113162;23;20101;-62
2024/01/22 06:24:34;;;;;;;10.25;4.55;;;;;;;;;;6115069;23;20087;-56
2024/01/22 06:27:17;;;;;;;10.50;5.10;;;;;;;;;;6115970;23;20503;-52
2024/01/22 06:30:12;;;;;;;13.23;3.88;;;;;;;;;;6111391;23;20471;-54
2024/01/22 06:33:00;;;;;;;15.20;5.45;;;;;;;;;;6117003;23;20026;-53
2024/01/22 06:35:54;;;;;;;14.00;4.55;;;;;;;;;;6115954;23;20057;-62
2024/01/22 06:38:41;;;;;;;13.52;5.13;;;;;;;;;;6117224;23;20032;-62
2024/01/22 06:41:35;;;;;;;14.75;4.47;;;;;;;;;;6118386;23;20340;-62
2024/01/22 06:44:22;;;;;;;16.75;4.65;;;;;;;;;;6118573;23;20097;-62
2024/01/22 06:47:16;;;;;;;12.63;4.00;;;;;;;;;;6118449;23;20029;-61
2024/01/22 06:50:04;;;;;;;14.10;4.75;;;;;;;;;;6108909;23;20369;-62
2024/01/22 06:52:58;;;;;;;13.60;3.92;;;;;;;;;;6116396;23;20029;-59
2024/01/22 06:55:46;;;;;;;15.75;4.57;;;;;;;;;;6116818;23;20787;-59
2024/01/22 06:58:39;;;;;;;15.05;4.75;;;;;;;;;;6117809;23;20022;-59
2024/01/22 07:01:27;;;;;;;10.93;4.10;;;;;;;;;;6118753;23;20531;-59
2024/01/22 07:04:20;;;;;;;12.13;5.70;;;;;;;;;;6117026;23;20076;-55
2024/01/22 07:07:08;;;;;;;17.75;5.10;;;;;;;;;;6118957;23;20073;-52
2024/01/22 07:10:01;;;;;;;14.48;4.07;;;;;;;;;;6118597;23;20026;-55
2024/01/22 07:12:56;;;;;;;9.10;4.35;;;;;;;;;;6118784;23;20057;-54
2024/01/22 07:15:49;;;;;;;18.98;5.20;;;;;;;;;;6117724;23;20029;-54
2024/01/22 07:18:37;;;;;;;11.50;3.97;;;;;;;;;;6117457;23;20465;-54
2024/01/22 07:21:38;;;;;;;9.10;3.65;;;;;;;;;;6114233;23;20022;-62
2024/01/22 07:24:32;;;;;;;12.95;4.80;;;;;;;;;;6118502;23;20038;-61
2024/01/22 07:27:25;;;;;;;14.82;5.55;;;;;;;;;;6119820;23;20037;-62
2024/01/22 07:30:13;;;;;;;25.13;5.73;;;;;;;;;;6119352;23;20615;-63
2024/01/22 07:33:07;;;;;;;14.65;4.90;;;;;;;;;;6117218;23;20018;-62
2024/01/22 07:35:55;;;;;;;19.77;5.90;;;;;;;;;;6119589;23;20456;-62
2024/01/22 07:38:51;;;;;;;15.63;3.97;;;;;;;;;;6119259;23;20279;-62
2024/01/22 07:41:38;;;;;;;22.67;4.82;;;;;;;;;;6119157;23;20121;-61
2024/01/22 07:44:30;;;;;;;16.92;4.93;;;;;;;;;;6117347;23;20029;-61
2024/01/22 07:47:25;;;;;;;16.13;4.85;;;;;;;;;;6119485;23;20077;-68
2024/01/22 07:50:16;;;;;;;18.42;5.10;;;;;;;;;;6117095;23;20474;-69
2024/01/22 07:53:07;;;;;;;19.63;5.35;;;;;;;;;;6118229;23;20022;-69
2024/01/22 07:55:54;;;;;;;12.15;4.68;;;;;;;;;;6117780;23;20041;-69
2024/01/22 07:58:48;;;;;;;11.60;4.20;;;;;;;;;;6118911;23;20022;-63
2024/01/22 08:01:35;;;;;;;13.98;4.50;;;;;;;;;;6119160;23;20025;-60
2024/01/22 08:04:29;;;;;;;19.73;4.50;;;;;;;;;;6116142;23;20544;-60
2024/01/22 08:07:19;;;;;;;12.88;3.90;;;;;;;;;;6116267;23;20025;-60
2024/01/22 08:10:14;;;;;;;10.93;2.70;;;;;;;;;;6117992;23;20026;-60
2024/01/22 08:13:01;;;;;;;13.93;3.65;;;;;;;;;;6116547;23;20401;-59
2024/01/22 08:16:03;;;;;;;7.65;2.83;;;;;;;;;;6119065;23;20278;-64
2024/01/22 08:18:48;;;;;;;13.73;3.05;;;;;;;;;;6116739;23;20030;-62
2024/01/22 08:21:50;;;;;;;8.63;2.78;;;;;;;;;;6118016;23;20034;-63
2024/01/22 08:24:37;;;;;;;4.53;2.28;;;;;;;;;;6117544;23;20288;-62
2024/01/22 08:27:32;;;;;;;14.75;3.20;;;;;;;;;;6119807;23;20022;-55
2024/01/22 08:30:19;;;;;;;7.60;2.65;;;;;;;;;;6114694;23;20025;-55
2024/01/22 08:33:13;;;;;;;12.43;2.88;;;;;;;;;;6115134;23;20500;-51
2024/01/22 08:36:00;;;;;;;12.57;3.35;;;;;;;;;;6117422;23;20027;-51
2024/01/22 08:38:54;;;;;;;15.43;3.42;;;;;;;;;;6117186;23;20076;-53
2024/01/22 08:41:47;;;;;;;18.70;4.05;;;;;;;;;;6114504;23;20241;-54
2024/01/22 08:44:35;;;;;;;22.92;3.95;;;;;;;;;;6116385;23;20042;-63
2024/01/22 08:47:28;;;;;;;27.15;4.63;;;;;;;;;;6117143;23;20026;-63
2024/01/22 08:50:23;;;;;;;22.05;5.28;;;;;;;;;;6116132;23;20547;-63
2024/01/22 08:53:16;;;;;;;33.58;5.07;;;;;;;;;;6117159;23;20084;-64
2024/01/22 08:56:04;;;;;;;33.10;5.28;;;;;;;;;;6116497;23;20025;-63
2024/01/22 08:58:57;;;;;;;26.67;4.95;;;;;;;;;;6114878;23;20551;-69
2024/01/22 09:01:45;;;;;;;36.22;6.15;;;;;;;;;;6117219;23;20021;-67
2024/01/22 09:04:38;;;;;;;37.67;5.40;;;;;;;;;;6117625;23;20400;-68
2024/01/22 09:07:26;;;;;;;32.22;4.97;;;;;;;;;;6118480;23;20018;-68
2024/01/22 09:10:24;;;;;;;37.50;6.25;;;;;;;;;;6116990;23;20022;-69
2024/01/22 09:13:11;;;;;;;41.22;6.00;;;;;;;;;;6117415;23;20405;-63
2024/01/22 09:16:05;;;;;;;35.38;5.22;;;;;;;;;;6117798;23;20085;-63
2024/01/22 09:18:52;;;;;;;25.63;4.85;;;;;;;;;;6115909;23;20061;-63
2024/01/22 09:21:53;;;;;;;20.25;4.53;;;;;;;;;;6116215;23;20356;-63
2024/01/22 09:24:47;;;;;;;27.42;5.10;;;;;;;;;;6115431;23;20018;-53
2024/01/22 09:27:42;;;;;;;35.35;4.90;;;;;;;;;;6117293;23;20034;-68
2024/01/22 09:30:29;;;;;;;26.23;3.90;;;;;;;;;;6116531;23;20032;-68
2024/01/22 09:33:22;;;;;;;35.60;5.35;;;;;;;;;;6116878;23;20041;-68
2024/01/22 09:36:10;;;;;;;37.70;5.45;;;;;;;;;;6118420;23;20093;-68
2024/01/22 09:39:05;;;;;;;20.80;3.85;;;;;;;;;;6115257;23;20941;-68
2024/01/22 09:41:51;;;;;;;51.63;6.18;;;;;;;;;;6118377;23;20081;-56
2024/01/22 09:44:46;;;;;;;37.13;4.68;;;;;;;;;;6115846;23;20634;-55
2024/01/22 09:47:33;;;;;;;51.22;5.97;;;;;;;;;;6116641;23;20413;-53
2024/01/22 09:50:30;;;;;;;44.97;5.72;;;;;;;;;;6117772;23;20022;-53
2024/01/22 09:53:26;;;;;;;49.47;6.88;;;;;;;;;;6116548;23;20540;-63
2024/01/22 09:56:21;;;;;;;36.17;4.70;;;;;;;;;;6117698;23;20025;-63
2024/01/22 09:59:19;;;;;;;52.70;6.40;;;;;;;;;;6116536;23;20444;-63
2024/01/22 10:02:16;;;;;;;64.88;7.72;;;;;;;;;;6117230;23;20399;-63
2024/01/22 10:05:04;;;;;;;50.95;6.72;;;;;;;;;;6107736;23;20469;-64
2024/01/22 10:07:58;;;;;;;54.95;6.07;;;;;;;;;;6116409;23;20212;-63
2024/01/22 10:10:45;;;;;;;60.35;6.43;;;;;;;;;;6116763;23;20037;-63
2024/01/22 10:13:49;;;;;;;61.63;5.97;;;;;;;;;;6116920;23;20077;-63
2024/01/22 10:16:38;;;;;;;49.72;6.18;;;;;;;;;;6114603;23;20347;-65
2024/01/22 10:19:31;;;;;;;62.65;7.97;;;;;;;;;;6116402;23;20022;-64
2024/01/22 10:22:28;;;;;;;63.67;7.88;;;;;;;;;;6114588;23;20024;-56
2024/01/22 10:25:27;;;;;;;79.45;10.80;;;;;;;;;;6113726;23;20018;-56
2024/01/22 10:28:22;;;;;;;61.70;7.75;;;;;;;;;;6116142;23;20073;-52
2024/01/22 10:31:13;;;;;;;76.20;8.88;;;;;;;;;;6115947;23;20032;-56
2024/01/22 10:34:04;;;;;;;72.78;10.23;;;;;;;;;;6113105;23;20468;-54
2024/01/22 10:37:07;;;;;;;53.83;6.63;;;;;;;;;;6116698;23;20235;-54
2024/01/22 10:40:03;;;;;;;73.82;9.25;;;;;;;;;;6114897;23;20046;-64
2024/01/22 10:42:55;;;;;;;87.78;11.18;;;;;;;;;;6116551;23;20388;-64
2024/01/22 10:45:46;;;;;;;76.97;8.80;;;;;;;;;;6114861;23;20026;-64
2024/01/22 10:48:40;;;;;;;78.07;10.45;;;;;;;;;;6115937;23;20033;-64
2024/01/22 10:51:27;;;;;;;60.90;7.50;;;;;;;;;;6112247;23;20056;-63
2024/01/22 10:54:21;;;;;;;87.43;9.45;;;;;;;;;;6111302;23;20032;-62
2024/01/22 10:57:08;;;;;;;81.95;9.50;;;;;;;;;;6114893;23;20022;-62
2024/01/22 11:00:06;;;;;;;64.25;9.13;;;;;;;;;;6113771;23;20412;-62
2024/01/22 11:02:57;;;;;;;93.05;11.98;;;;;;;;;;6114962;23;20029;-62
2024/01/22 11:05:53;;;;;;;92.95;11.77;;;;;;;;;;6114109;23;20073;-62
2024/01/22 11:08:41;;;;;;;107.80;12.27;;;;;;;;;;6115984;23;20025;-55
2024/01/22 11:11:36;;;;;;;91.72;11.98;;;;;;;;;;6112447;23;20022;-55
2024/01/22 11:14:23;;;;;;;;;;;;;;;;;;6115384;23;20025;-52
2024/01/22 11:17:18;;;;;;;98.70;11.13;;;;;;;;;;6114091;23;19924;-55
2024/01/22 11:20:17;;;;;;;93.95;12.23;;;;;;;;;;6114519;23;20053;-67
2024/01/22 11:23:24;;;;;;;105.38;12.40;;;;;;;;;;5733330;23;9072964;-60
2024/01/22 11:26:18;;;;;;;95.32;12.70;;;;;;;;;;6117532;23;20292;-60
2024/01/22 11:29:14;;;;;;;107.28;13.07;;;;;;;;;;6118483;23;20029;-60
2024/01/22 11:32:27;;;;;;;92.38;12.10;;;;;;;;;;6117608;23;20046;-61
2024/01/22 11:35:32;;;;;;;106.10;12.38;;;;;;;;;;6116627;23;20478;-60
2024/01/22 11:38:42;;;;;;;79.30;10.55;;;;;;;;;;6115718;23;20125;-60
2024/01/22 11:41:32;;;;;;;99.93;11.77;;;;;;;;;;6119606;23;20077;-60
2024/01/22 11:44:27;;;;;;;111.43;13.15;;;;;;;;;;6117520;23;20129;-60
2024/01/22 11:47:16;;;;;;;104.43;11.05;;;;;;;;;;6117462;23;20484;-62
2024/01/22 11:50:12;;;;;;;94.70;10.57;;;;;;;;;;6116451;23;20022;-63
2024/01/22 11:53:06;;;;;;;108.15;14.23;;;;;;;;;;6116107;23;20172;-63
2024/01/22 11:56:06;;;;;;;109.85;14.32;;;;;;;;;;6116843;23;20598;-63
2024/01/22 11:59:03;;;;;;;89.78;9.93;;;;;;;;;;6114034;23;20205;-63
2024/01/22 12:02:07;;;;;;;100.22;13.65;;;;;;;;;;6117845;23;20026;-63
2024/01/22 12:05:01;;;;;;;114.55;15.93;;;;;;;;;;6117106;23;20022;-67
2024/01/22 12:07:55;;;;;;;91.78;12.30;;;;;;;;;;6112611;23;20033;-68
2024/01/22 12:10:52;;;;;;;97.55;13.48;;;;;;;;;;6116710;23;20467;-67
2024/01/22 12:13:43;;;;;;;102.40;14.18;;;;;;;;;;6114895;23;20368;-67
2024/01/22 12:16:36;;;;;;;89.72;12.27;;;;;;;;;;6117911;23;20436;-63
2024/01/22 12:19:24;;;;;;;109.80;13.93;;;;;;;;;;6118033;23;20025;-62
2024/01/22 12:22:31;;;;;;;86.03;12.48;;;;;;;;;;6117093;23;20105;-61
2024/01/22 12:25:19;;;;;;;102.72;13.65;;;;;;;;;;6116966;23;20037;-62
2024/01/22 12:28:14;;;;;;;110.97;14.57;;;;;;;;;;6118301;23;20025;-62
2024/01/22 12:31:02;;;;;;;98.43;12.60;;;;;;;;;;6117364;23;20034;-63
2024/01/22 12:34:10;;;;;;;75.00;12.25;;;;;;;;;;6117630;23;20026;-68
2024/01/22 12:36:57;;;;;;;102.60;12.25;;;;;;;;;;6116261;23;20041;-67
2024/01/22 12:40:04;;;;;;;104.00;11.52;;;;;;;;;;6116882;23;20028;-67
2024/01/22 12:42:53;;;;;;;96.88;12.27;;;;;;;;;;6118497;23;20029;-68
2024/01/22 12:45:47;;;;;;;91.07;11.55;;;;;;;;;;6115845;23;20029;-60
2024/01/22 12:48:41;;;;;;;96.45;12.18;;;;;;;;;;6116861;23;20022;-68
2024/01/22 12:51:29;;;;;;;122.80;14.30;;;;;;;;;;6117398;23;20100;-68
2024/01/22 12:54:23;;;;;;;81.07;11.10;;;;;;;;;;6116147;23;20360;-68
2024/01/22 12:57:10;;;;;;;89.95;11.38;;;;;;;;;;6110497;23;20025;-68
2024/01/22 13:00:08;;;;;;;106.15;12.00;;;;;;;;;;6117291;23;20081;-68
2024/01/22 13:03:01;;;;;;;92.20;11.88;;;;;;;;;;6116833;23;20026;-55
2024/01/22 13:05:48;;;;;;;116.68;13.90;;;;;;;;;;6117293;23;20057;-55
2024/01/22 13:08:43;;;;;;;77.20;10.10;;;;;;;;;;6113523;23;20028;-56
2024/01/22 13:11:30;;;;;;;87.78;12.63;;;;;;;;;;6116350;23;20104;-53
2024/01/22 13:14:24;;;;;;;99.90;13.18;;;;;;;;;;6115827;23;20021;-60
2024/01/22 13:17:11;;;;;;;99.88;12.82;;;;;;;;;;6117328;23;20112;-68
2024/01/22 13:20:07;;;;;;;98.72;13.68;;;;;;;;;;6116718;23;20026;-68
2024/01/22 13:22:59;;;;;;;88.57;12.57;;;;;;;;;;6116628;23;20360;-68
2024/01/22 13:25:54;;;;;;;55.40;8.30;;;;;;;;;;6114285;23;20061;-68
2024/01/22 13:28:43;;;;;;;92.72;12.75;;;;;;;;;;6118193;23;20050;-67
2024/01/22 13:31:36;;;;;;;87.80;12.15;;;;;;;;;;6118382;23;20117;-56
2024/01/22 13:34:24;;;;;;;81.28;11.57;;;;;;;;;;6115846;23;20082;-53
2024/01/22 13:37:17;;;;;;;92.25;10.93;;;;;;;;;;6115999;23;20523;-52
2024/01/22 13:40:05;;;;;;;86.35;12.40;;;;;;;;;;6116965;23;20029;-53
2024/01/22 13:43:00;;;;;;;86.20;12.80;;;;;;;;;;6116327;23;20233;-55
2024/01/22 13:45:47;;;;;;;82.88;11.48;;;;;;;;;;6113581;23;20535;-66
2024/01/22 13:48:41;;;;;;;75.13;11.45;;;;;;;;;;6115948;23;20022;-67
2024/01/22 13:51:28;;;;;;;79.63;11.50;;;;;;;;;;6114568;23;20064;-66
2024/01/22 13:54:24;;;;;;;99.00;12.38;;;;;;;;;;6116117;23;20057;-67
2024/01/22 13:57:18;;;;;;;75.03;9.65;;;;;;;;;;6117131;23;20018;-67
2024/01/22 14:00:06;;;;;;;78.30;10.77;;;;;;;;;;6116172;23;20547;-63
2024/01/22 14:02:59;;;;;;;71.55;11.77;;;;;;;;;;6116762;23;20487;-64
2024/01/22 14:05:46;;;;;;;63.63;9.20;;;;;;;;;;6116369;23;20073;-64
2024/01/22 14:08:40;;;;;;;93.82;12.85;;;;;;;;;;6118334;23;20046;-64
2024/01/22 14:11:28;;;;;;;81.07;10.63;;;;;;;;;;6116909;23;20077;-60
2024/01/22 14:14:22;;;;;;;83.38;11.95;;;;;;;;;;6116675;23;20025;-65
2024/01/22 14:17:09;;;;;;;75.57;10.98;;;;;;;;;;6115522;23;20547;-64
2024/01/22 14:20:03;;;;;;;70.65;12.13;;;;;;;;;;6114566;23;20405;-64
2024/01/22 14:22:57;;;;;;;61.58;8.20;;;;;;;;;;6116606;23;20029;-64
2024/01/22 14:25:52;;;;;;;54.47;9.55;;;;;;;;;;6117120;23;20029;-64
2024/01/22 14:28:39;;;;;;;56.67;8.35;;;;;;;;;;6118264;23;20026;-67
2024/01/22 14:31:34;;;;;;;49.83;7.50;;;;;;;;;;6115036;23;20057;-66
2024/01/22 14:34:28;;;;;;;70.70;9.32;;;;;;;;;;6112902;23;20026;-67
2024/01/22 14:37:22;;;;;;;89.32;10.15;;;;;;;;;;6117624;23;20056;-67
2024/01/22 14:40:10;;;;;;;75.93;11.35;;;;;;;;;;6115381;23;20026;-56
2024/01/22 14:43:04;;;;;;;63.90;9.50;;;;;;;;;;6117104;23;20356;-51
2024/01/22 14:45:52;;;;;;;50.70;8.00;;;;;;;;;;6116488;23;20518;-52
2024/01/22 14:48:45;;;;;;;65.97;9.05;;;;;;;;;;6115547;23;20026;-52
2024/01/22 14:51:47;;;;;;;61.53;8.80;;;;;;;;;;6115910;23;20075;-53
2024/01/22 14:54:39;;;;;;;68.15;9.65;;;;;;;;;;6115726;23;20026;-53
2024/01/22 14:57:27;;;;;;;75.45;9.60;;;;;;;;;;6117336;23;20468;-64
2024/01/22 15:00:20;;;;;;;65.65;8.48;;;;;;;;;;6117575;23;20428;-63
2024/01/22 15:03:08;;;;;;;55.10;9.00;;;;;;;;;;6117734;23;20491;-63
2024/01/22 15:06:02;;;;;;;72.47;10.82;;;;;;;;;;6111059;23;20097;-64
2024/01/22 15:08:56;;;;;;;67.93;9.73;;;;;;;;;;6117493;23;20032;-63
2024/01/22 15:11:44;;;;;;;54.28;9.90;;;;;;;;;;6116460;23;20072;-62
2024/01/22 15:14:38;;;;;;;66.38;8.85;;;;;;;;;;6116838;23;20030;-63
2024/01/22 15:17:25;;;;;;;75.07;9.87;;;;;;;;;;6114127;23;20092;-62
2024/01/22 15:20:20;;;;;;;69.47;9.85;;;;;;;;;;6115539;23;20081;-63
2024/01/22 15:23:16;;;;;;;93.23;10.47;;;;;;;;;;6117463;23;20033;-63
2024/01/22 15:26:14;;;;;;;54.55;7.05;;;;;;;;;;6115808;23;20277;-63
2024/01/22 15:29:02;;;;;;;61.17;6.68;;;;;;;;;;6117659;23;20039;-63
2024/01/22 15:31:56;;;;;;;78.03;9.45;;;;;;;;;;6117966;23;20026;-64
2024/01/22 15:34:44;;;;;;;52.13;7.38;;;;;;;;;;6114986;23;20037;-63
2024/01/22 15:37:39;;;;;;;48.20;7.50;;;;;;;;;;6117772;23;20053;-67
2024/01/22 15:40:08;;;;;;;47.92;8.30;;;;;;;;;;6116880;23;20022;-62
2024/01/22 15:42:36;;;;;;;56.10;8.65;;;;;;;;;;6115824;23;20405;-63
2024/01/22 15:45:10;;;;;;;81.93;10.10;;;;;;;;;;6113029;23;20026;-62
2024/01/22 15:47:37;;;;;;;73.65;9.63;;;;;;;;;;6116728;23;20018;-62
2024/01/22 15:50:12;;;;;;;59.47;8.35;;;;;;;;;;6117958;23;20098;-63
2024/01/22 15:52:39;;;;;;;70.32;8.57;;;;;;;;;;6117368;23;20105;-63
2024/01/22 15:55:07;;;;;;;52.22;7.30;;;;;;;;;;6114876;23;20026;-63
2024/01/22 15:57:41;;;;;;;86.68;9.82;;;;;;;;;;6117979;23;20400;-59
2024/01/22 16:00:12;;;;;;;67.32;9.43;;;;;;;;;;6117462;23;20052;-59
2024/01/22 16:02:47;;;;;;;55.42;7.75;;;;;;;;;;6117445;23;20429;-60
2024/01/22 16:05:14;;;;;;;;;;;;;;;;;;6115033;23;20044;-60
2024/01/22 16:07:41;;;;;;;68.00;9.68;;;;;;;;;;6111829;23;19987;-60
2024/01/22 16:10:15;;;;;;;63.25;6.95;;;;;;;;;;6115620;23;20053;-59